Miass, Russia
Current Conditions -  °F | °C
As of 12:00 AM on Friday 30 Jan 2015 (Local Time) from USCC Reporting Station
Clear Clear  
Wind Chill: -11°   Ceiling: Unl
Heat Index:   Visibility: 6mi
Dew Point: -15°   Wind: 7mph
Humidity: 47%   Direction: 160°SSE
Pressure: 30.21"   Gusts: NA
Location:  55°N, 60.09°E
Report Text: USCC 291800Z 16003MPS CAVOK M17/M26 Q1023 27000060 NOSIG RMKQFE747
Loading
Personal Weather Stations






























Interactive Weather Map New forecast layout! Learn more

10-Day Weather Forecast

Advertisements
Track Severe Weather on mobile